createdAt,value
2023-02-13T00:01:16.398Z,3.74
2023-02-13T00:03:45.995Z,3.87
2023-02-13T00:06:14.070Z,3.95
2023-02-13T00:08:42.369Z,3.95
2023-02-13T00:11:11.038Z,3.88
2023-02-13T00:13:39.114Z,3.79
2023-02-13T00:16:08.243Z,3.82
2023-02-13T00:18:39.857Z,3.78
2023-02-13T00:21:11.650Z,3.89
2023-02-13T00:23:40.774Z,3.82
2023-02-13T00:26:10.952Z,3.77
2023-02-13T00:28:40.848Z,3.76
2023-02-13T00:31:10.590Z,3.72
2023-02-13T00:33:39.689Z,3.70
2023-02-13T00:36:12.009Z,3.68
2023-02-13T00:38:41.396Z,3.79
2023-02-13T00:41:10.669Z,3.70
2023-02-13T00:43:39.215Z,3.67
2023-02-13T00:46:07.758Z,3.67
2023-02-13T00:48:36.703Z,3.64
2023-02-13T00:51:06.258Z,3.63
2023-02-13T00:53:36.734Z,3.64
2023-02-13T00:56:05.882Z,3.66
2023-02-13T00:58:34.511Z,3.62
2023-02-13T01:01:02.723Z,3.61
2023-02-13T01:03:31.013Z,3.63
2023-02-13T01:05:59.229Z,3.57
2023-02-13T01:08:28.610Z,3.60
2023-02-13T01:10:58.850Z,3.53
2023-02-13T01:13:27.545Z,3.51
2023-02-13T01:15:55.904Z,3.46
2023-02-13T01:18:24.149Z,3.41
2023-02-13T01:21:00.384Z,3.41
2023-02-13T01:23:39.854Z,3.40
2023-02-13T01:26:12.482Z,3.36
2023-02-13T01:28:40.595Z,3.31
2023-02-13T01:31:08.750Z,3.27
2023-02-13T01:33:37.263Z,3.24
2023-02-13T01:36:08.859Z,3.25
2023-02-13T01:38:37.077Z,3.22
2023-02-13T01:41:05.521Z,3.18
2023-02-13T01:43:51.482Z,3.13
2023-02-13T01:46:26.250Z,3.09
2023-02-13T01:48:59.787Z,3.06
2023-02-13T01:51:32.492Z,3.06
2023-02-13T01:54:03.930Z,3.09
2023-02-13T01:56:38.906Z,3.43
2023-02-13T01:59:13.118Z,3.47
2023-02-13T02:01:41.599Z,3.25
2023-02-13T02:04:14.761Z,3.12
2023-02-13T02:06:45.385Z,3.04
2023-02-13T02:09:17.147Z,3.08
2023-02-13T02:11:53.877Z,3.04
2023-02-13T02:14:23.749Z,2.94
2023-02-13T02:16:51.805Z,2.76
2023-02-13T02:19:32.907Z,2.62
2023-02-13T02:22:42.577Z,2.51
2023-02-13T02:25:52.057Z,2.32
2023-02-13T02:28:41.334Z,2.13
2023-02-13T02:31:42.450Z,1.95
2023-02-13T02:34:22.422Z,1.95
2023-02-13T02:37:07.833Z,2.10
2023-02-13T02:39:46.610Z,1.96
2023-02-13T02:42:30.408Z,1.92
2023-02-13T02:45:07.184Z,1.77
2023-02-13T02:48:00.729Z,1.87
2023-02-13T02:50:37.575Z,1.73
2023-02-13T02:53:13.576Z,1.53
2023-02-13T02:55:51.326Z,1.45
2023-02-13T02:58:41.170Z,1.34
2023-02-13T03:01:31.826Z,1.25
2023-02-13T03:04:19.341Z,1.20
2023-02-13T03:06:54.167Z,1.16
2023-02-13T03:09:44.044Z,1.09
2023-02-13T03:12:34.327Z,1.04
2023-02-13T03:15:02.488Z,0.98
2023-02-13T03:17:48.379Z,0.94
2023-02-13T03:20:53.421Z,0.90
2023-02-13T03:23:33.897Z,0.87
2023-02-13T03:26:19.309Z,0.87
2023-02-13T03:29:16.670Z,0.84
2023-02-13T03:32:01.712Z,0.82
2023-02-13T03:34:54.240Z,0.79
2023-02-13T03:37:49.917Z,0.68
2023-02-13T03:40:25.518Z,0.65
2023-02-13T03:42:58.335Z,0.58
2023-02-13T03:45:48.824Z,0.49
2023-02-13T03:48:44.616Z,0.42
2023-02-13T03:51:16.310Z,0.39
2023-02-13T03:53:49.162Z,0.32
2023-02-13T03:56:40.358Z,0.33
2023-02-13T03:59:18.910Z,0.24
2023-02-13T04:01:57.183Z,0.15
2023-02-13T04:04:33.960Z,0.09
2023-02-13T04:07:05.156Z,0.04
2023-02-13T04:09:38.090Z,0.00
2023-02-13T04:12:17.992Z,-0.08
2023-02-13T04:14:52.112Z,-0.08
2023-02-13T04:17:25.437Z,-0.07
2023-02-13T04:19:54.229Z,-0.08
2023-02-13T04:22:22.449Z,0.06
2023-02-13T04:24:50.650Z,0.24
2023-02-13T04:27:20.338Z,0.05
2023-02-13T04:29:49.192Z,-0.06
2023-02-13T04:32:17.515Z,-0.12
2023-02-13T04:34:45.661Z,-0.14
2023-02-13T04:37:13.842Z,-0.09
2023-02-13T04:39:41.953Z,-0.15
2023-02-13T04:42:10.159Z,-0.22
2023-02-13T04:44:39.929Z,-0.30
2023-02-13T04:47:08.097Z,-0.34
2023-02-13T04:49:36.286Z,-0.34
2023-02-13T04:52:04.631Z,-0.33
2023-02-13T04:54:32.754Z,-0.33
2023-02-13T04:57:00.903Z,-0.27
2023-02-13T04:59:29.033Z,-0.37
2023-02-13T05:01:59.376Z,-0.38
2023-02-13T05:04:29.038Z,-0.40
2023-02-13T05:06:57.284Z,-0.42
2023-02-13T05:09:25.406Z,-0.43
2023-02-13T05:11:54.349Z,-0.41
2023-02-13T05:14:25.796Z,-0.37
2023-02-13T05:16:53.836Z,-0.41
2023-02-13T05:19:23.453Z,-0.39
2023-02-13T05:22:09.168Z,-0.46
2023-02-13T05:24:37.291Z,-0.55
2023-02-13T05:27:05.640Z,-0.62
2023-02-13T05:29:33.684Z,-0.68
2023-02-13T05:32:01.937Z,-0.63
2023-02-13T05:34:31.760Z,-0.62
2023-02-13T05:37:00.903Z,-0.61
2023-02-13T05:39:29.054Z,-0.61
2023-02-13T05:41:57.216Z,-0.59
2023-02-13T05:44:25.259Z,-0.60
2023-02-13T05:46:54.027Z,-0.59
2023-02-13T05:49:23.024Z,-0.58
2023-02-13T05:51:53.353Z,-0.57
2023-02-13T05:54:21.642Z,-0.57
2023-02-13T05:56:49.945Z,-0.56
2023-02-13T05:59:18.326Z,-0.57
2023-02-13T06:01:48.844Z,-0.59
2023-02-13T06:04:17.169Z,-0.55
2023-02-13T06:06:45.676Z,-0.45
2023-02-13T06:09:15.845Z,-0.39
2023-02-13T06:11:43.988Z,-0.34
2023-02-13T06:14:14.357Z,-0.32
2023-02-13T06:16:42.667Z,-0.29
2023-02-13T06:19:10.786Z,-0.12
2023-02-13T06:21:39.025Z,-0.24
2023-02-13T06:24:09.093Z,-0.17
2023-02-13T06:26:38.777Z,-0.21
2023-02-13T06:29:07.008Z,-0.14
2023-02-13T06:31:35.243Z,-0.10
2023-02-13T06:34:03.720Z,-0.13
2023-02-13T06:36:32.411Z,-0.09
2023-02-13T06:39:00.854Z,0.07
2023-02-13T06:41:29.076Z,0.10
2023-02-13T06:43:58.686Z,0.13
2023-02-13T06:46:26.941Z,0.22
2023-02-13T06:48:55.239Z,0.26
2023-02-13T06:51:23.392Z,0.25
2023-02-13T06:53:51.452Z,0.25
2023-02-13T06:56:19.547Z,0.26
2023-02-13T06:58:47.781Z,0.30
2023-02-13T07:01:17.477Z,0.40
2023-02-13T07:03:45.833Z,0.49
2023-02-13T07:06:19.213Z,0.63
2023-02-13T07:08:47.929Z,0.65
2023-02-13T07:11:20.920Z,0.67
2023-02-13T07:13:49.683Z,0.72
2023-02-13T07:16:20.026Z,0.82
2023-02-13T07:18:48.181Z,0.92
2023-02-13T07:21:16.662Z,1.17
2023-02-13T07:23:45.008Z,1.21
2023-02-13T07:26:13.102Z,1.24
2023-02-13T07:28:41.277Z,1.27
2023-02-13T07:31:09.508Z,1.31
2023-02-13T07:33:39.973Z,1.42
2023-02-13T07:36:09.622Z,1.47
2023-02-13T07:38:37.733Z,1.63
2023-02-13T07:41:06.186Z,1.67
2023-02-13T07:43:34.435Z,1.69
2023-02-13T07:46:04.246Z,1.82
2023-02-13T07:48:32.323Z,1.87
2023-02-13T07:51:04.329Z,1.94
2023-02-13T07:53:32.620Z,2.00
2023-02-13T07:56:01.001Z,2.12
2023-02-13T07:58:29.557Z,2.13
2023-02-13T08:00:57.674Z,2.15
2023-02-13T08:03:25.843Z,2.18
2023-02-13T08:05:53.980Z,2.28
2023-02-13T08:08:24.057Z,2.31
2023-02-13T08:11:10.294Z,2.45
2023-02-13T08:13:38.961Z,2.51
2023-02-13T08:16:07.365Z,2.79
2023-02-13T08:18:36.012Z,2.92
2023-02-13T08:21:04.374Z,3.03
2023-02-13T08:23:34.700Z,3.01
2023-02-13T08:26:04.036Z,3.01
2023-02-13T08:28:32.325Z,3.16
2023-02-13T08:31:00.607Z,3.33
2023-02-13T08:33:29.080Z,3.48
2023-02-13T08:35:57.374Z,3.58
2023-02-13T08:38:26.407Z,3.62
2023-02-13T08:40:58.733Z,3.71
2023-02-13T08:43:27.212Z,3.65
2023-02-13T08:45:55.820Z,3.73
2023-02-13T08:48:24.615Z,3.75
2023-02-13T08:50:52.718Z,3.83
2023-02-13T08:53:22.439Z,3.94
2023-02-13T08:55:56.831Z,4.03
2023-02-13T08:58:25.970Z,4.09
2023-02-13T09:00:55.903Z,4.27
2023-02-13T09:03:24.415Z,4.34
2023-02-13T09:05:52.556Z,4.37
2023-02-13T09:08:20.875Z,4.42
2023-02-13T09:10:56.673Z,4.45
2023-02-13T09:13:26.240Z,4.64
2023-02-13T09:15:54.290Z,4.62
2023-02-13T09:18:22.452Z,4.76
2023-02-13T09:20:50.623Z,4.68
2023-02-13T09:23:18.714Z,4.76
2023-02-13T09:25:46.844Z,4.92
2023-02-13T09:28:15.227Z,5.02
2023-02-13T09:30:44.802Z,4.99
2023-02-13T09:33:13.136Z,5.01
2023-02-13T09:35:43.552Z,5.07
2023-02-13T09:38:12.324Z,5.25
2023-02-13T09:40:49.120Z,5.36
2023-02-13T09:43:25.342Z,5.35
2023-02-13T09:45:57.411Z,5.58
2023-02-13T09:48:30.663Z,5.58
2023-02-13T09:51:00.109Z,5.69
2023-02-13T09:53:36.563Z,5.65
2023-02-13T09:56:12.281Z,5.67
2023-02-13T09:58:46.190Z,5.76
2023-02-13T10:01:34.315Z,6.02
2023-02-13T10:04:32.518Z,6.12
2023-02-13T10:07:16.058Z,6.13
2023-02-13T10:09:56.537Z,6.14
2023-02-13T10:12:55.965Z,6.27
2023-02-13T10:15:32.705Z,6.39
2023-02-13T10:18:06.524Z,6.45
2023-02-13T10:20:41.692Z,6.42
2023-02-13T10:23:21.228Z,6.55
2023-02-13T10:25:57.555Z,6.58
2023-02-13T10:28:40.026Z,6.59
2023-02-13T10:31:13.417Z,6.70
2023-02-13T10:33:51.935Z,6.76
2023-02-13T10:36:24.857Z,6.77
2023-02-13T10:38:59.621Z,6.86
2023-02-13T10:41:44.304Z,6.84
2023-02-13T10:44:31.068Z,6.87
2023-02-13T10:47:11.169Z,7.08
2023-02-13T10:50:02.072Z,7.15
2023-02-13T10:52:45.267Z,7.14
2023-02-13T10:55:39.889Z,7.17
2023-02-13T10:58:14.539Z,7.12
2023-02-13T11:00:50.876Z,7.39
2023-02-13T11:03:22.092Z,7.39
2023-02-13T11:05:53.422Z,7.50
2023-02-13T11:08:25.282Z,7.57
2023-02-13T11:10:54.016Z,7.53
2023-02-13T11:13:25.572Z,7.71
2023-02-13T11:16:06.390Z,7.68
2023-02-13T11:18:36.494Z,7.78
2023-02-13T11:21:11.136Z,7.68
2023-02-13T11:23:46.513Z,7.76
2023-02-13T11:26:23.650Z,7.75
2023-02-13T11:28:56.379Z,7.77
2023-02-13T11:31:29.807Z,7.98
2023-02-13T11:33:59.225Z,7.99
2023-02-13T11:36:31.596Z,8.21
2023-02-13T11:39:01.804Z,8.33
2023-02-13T11:41:32.387Z,8.31
2023-02-13T11:44:04.422Z,8.20
2023-02-13T11:46:48.020Z,8.29
2023-02-13T11:49:23.121Z,8.14
2023-02-13T11:51:54.348Z,8.17
2023-02-13T11:54:26.998Z,8.25
2023-02-13T11:57:06.013Z,8.33
2023-02-13T11:59:42.371Z,8.38
2023-02-13T12:02:19.797Z,8.39
2023-02-13T12:04:53.423Z,8.42
2023-02-13T12:07:27.112Z,8.54
2023-02-13T12:10:02.665Z,8.54
2023-02-13T12:12:38.492Z,8.63
2023-02-13T12:15:20.280Z,8.62
2023-02-13T12:17:54.221Z,8.67
2023-02-13T12:20:22.736Z,8.87
2023-02-13T12:23:05.723Z,8.80
2023-02-13T12:25:49.249Z,8.75
2023-02-13T12:28:21.926Z,8.73
2023-02-13T12:31:35.123Z,8.75
2023-02-13T12:34:39.078Z,8.82
2023-02-13T12:37:27.158Z,8.97
2023-02-13T12:40:25.916Z,8.77
2023-02-13T12:43:17.315Z,8.88
2023-02-13T12:45:52.863Z,8.79
2023-02-13T12:48:36.652Z,8.91
2023-02-13T12:51:20.911Z,8.87
2023-02-13T12:54:16.486Z,8.77
2023-02-13T12:57:01.923Z,8.84
2023-02-13T12:59:43.588Z,9.04
2023-02-13T13:02:42.583Z,9.23
2023-02-13T13:05:27.543Z,9.13
2023-02-13T13:08:14.605Z,9.07
2023-02-13T13:11:10.577Z,9.06
2023-02-13T13:13:50.858Z,8.95
2023-02-13T13:16:28.624Z,8.92
2023-02-13T13:19:07.608Z,9.04
2023-02-13T13:21:49.360Z,9.11
2023-02-13T13:24:29.356Z,9.01
2023-02-13T13:27:03.830Z,9.06
2023-02-13T13:29:47.935Z,9.02
2023-02-13T13:32:20.076Z,8.98
2023-02-13T13:34:49.162Z,8.99
2023-02-13T13:37:31.462Z,9.10
2023-02-13T13:40:05.617Z,9.27
2023-02-13T13:42:42.826Z,9.10
2023-02-13T13:45:27.608Z,9.25
2023-02-13T13:48:20.830Z,9.41
2023-02-13T13:50:51.146Z,9.22
2023-02-13T13:53:25.919Z,9.35
2023-02-13T13:56:05.277Z,9.24
2023-02-13T13:58:41.147Z,9.11
2023-02-13T14:01:33.077Z,9.30
2023-02-13T14:04:05.095Z,9.26
2023-02-13T14:07:09.290Z,9.22
2023-02-13T14:09:41.786Z,9.11
2023-02-13T14:12:39.517Z,9.26
2023-02-13T14:15:46.589Z,9.18
2023-02-13T14:18:24.005Z,9.14
2023-02-13T14:20:55.233Z,9.12
2023-02-13T14:23:39.905Z,9.16
2023-02-13T14:26:36.924Z,9.04
2023-02-13T14:29:37.309Z,9.06
2023-02-13T14:32:22.037Z,9.02
2023-02-13T14:34:58.132Z,8.98
2023-02-13T14:37:35.503Z,9.06
2023-02-13T14:40:52.008Z,8.99
2023-02-13T14:43:32.499Z,8.92
2023-02-13T14:46:18.605Z,8.95
2023-02-13T14:48:53.944Z,8.98
2023-02-13T14:51:30.761Z,8.93
2023-02-13T14:54:04.920Z,8.83
2023-02-13T14:56:33.940Z,8.83
2023-02-13T14:59:12.560Z,8.75
2023-02-13T15:01:52.745Z,8.89
2023-02-13T15:04:28.180Z,8.77
2023-02-13T15:07:02.261Z,8.71
2023-02-13T15:09:39.124Z,8.66
2023-02-13T15:12:26.176Z,8.62
2023-02-13T15:14:54.329Z,8.52
2023-02-13T15:17:26.121Z,8.43
2023-02-13T15:19:57.416Z,8.37
2023-02-13T15:22:34.887Z,8.32
2023-02-13T15:25:03.710Z,8.24
2023-02-13T15:27:35.377Z,8.13
2023-02-13T15:30:19.325Z,8.17
2023-02-13T15:32:59.800Z,8.27
2023-02-13T15:35:31.240Z,8.15
2023-02-13T15:38:01.864Z,7.97
2023-02-13T15:40:32.008Z,7.86
2023-02-13T15:43:03.520Z,7.74
2023-02-13T15:45:33.560Z,7.71
2023-02-13T15:48:01.888Z,7.58
2023-02-13T15:50:34.244Z,7.46
2023-02-13T15:53:11.339Z,7.42
2023-02-13T15:55:39.565Z,7.40
2023-02-13T15:58:14.308Z,7.29
2023-02-13T16:00:44.152Z,7.22
2023-02-13T16:03:19.149Z,7.11
2023-02-13T16:05:50.310Z,7.01
2023-02-13T16:08:47.195Z,6.98
2023-02-13T16:11:28.932Z,6.89
2023-02-13T16:14:06.574Z,6.85
2023-02-13T16:16:43.133Z,6.78
2023-02-13T16:19:38.741Z,6.72
2023-02-13T16:22:23.186Z,6.61
2023-02-13T16:24:57.393Z,6.55
2023-02-13T16:27:29.404Z,6.45
2023-02-13T16:30:00.343Z,6.39
2023-02-13T16:32:32.448Z,6.33
2023-02-13T16:35:19.283Z,6.26
2023-02-13T16:37:53.717Z,6.17
2023-02-13T16:40:41.116Z,6.12
2023-02-13T16:43:41.725Z,6.07
2023-02-13T16:46:41.215Z,5.96
2023-02-13T16:49:19.633Z,5.89
2023-02-13T16:51:56.979Z,5.82
2023-02-13T16:54:39.507Z,5.80
2023-02-13T16:57:24.268Z,5.78
2023-02-13T17:00:09.351Z,5.74
2023-02-13T17:02:41.111Z,5.68
2023-02-13T17:05:22.974Z,5.64
2023-02-13T17:07:54.761Z,5.59
2023-02-13T17:10:29.547Z,5.56
2023-02-13T17:13:03.167Z,5.49
2023-02-13T17:15:35.479Z,5.46
2023-02-13T17:18:03.906Z,5.46
2023-02-13T17:20:34.653Z,5.42
2023-02-13T17:23:06.306Z,5.34
2023-02-13T17:25:36.957Z,5.40
2023-02-13T17:28:14.980Z,5.42
2023-02-13T17:30:45.865Z,5.46
2023-02-13T17:33:18.793Z,5.56
2023-02-13T17:35:48.228Z,5.67
2023-02-13T17:38:17.540Z,5.53
2023-02-13T17:40:47.500Z,5.41
2023-02-13T17:43:21.038Z,5.29
2023-02-13T17:45:50.234Z,5.10
2023-02-13T17:48:18.481Z,5.04
2023-02-13T17:50:46.829Z,5.02
2023-02-13T17:53:22.210Z,5.11
2023-02-13T17:55:51.203Z,5.06
2023-02-13T17:58:21.690Z,4.91
2023-02-13T18:00:52.777Z,4.89
2023-02-13T18:03:24.177Z,4.99
2023-02-13T18:05:53.879Z,4.99
2023-02-13T18:08:23.801Z,4.87
2023-02-13T18:10:52.612Z,4.82
2023-02-13T18:13:22.581Z,4.76
2023-02-13T18:15:51.431Z,4.72
2023-02-13T18:18:20.688Z,4.63
2023-02-13T18:20:57.287Z,4.66
2023-02-13T18:23:26.453Z,4.71
2023-02-13T18:25:54.925Z,4.70
2023-02-13T18:28:24.905Z,4.64
2023-02-13T18:30:53.422Z,4.62
2023-02-13T18:33:24.380Z,4.50
2023-02-13T18:35:53.486Z,4.36
2023-02-13T18:38:22.683Z,4.35
2023-02-13T18:40:51.536Z,4.27
2023-02-13T18:43:19.903Z,4.18
2023-02-13T18:45:51.210Z,4.11
2023-02-13T18:48:21.403Z,4.10
2023-02-13T18:50:50.691Z,4.14
2023-02-13T18:53:22.496Z,4.13
2023-02-13T18:55:51.206Z,4.29
2023-02-13T18:58:22.202Z,4.13
2023-02-13T19:00:51.761Z,4.10
2023-02-13T19:03:21.019Z,4.03
2023-02-13T19:05:49.745Z,4.15
2023-02-13T19:08:18.482Z,4.16
2023-02-13T19:11:05.542Z,4.00
2023-02-13T19:13:35.907Z,4.00
2023-02-13T19:16:16.070Z,4.10
2023-02-13T19:18:52.107Z,4.03
2023-02-13T19:21:24.014Z,4.07
2023-02-13T19:23:53.640Z,4.16
2023-02-13T19:26:24.312Z,4.06
2023-02-13T19:28:53.609Z,4.15
2023-02-13T19:31:25.974Z,4.16
2023-02-13T19:33:55.586Z,4.14
2023-02-13T19:36:27.768Z,4.27
2023-02-13T19:38:58.885Z,4.20
2023-02-13T19:41:30.126Z,4.28
2023-02-13T19:43:58.681Z,4.23
2023-02-13T19:46:30.998Z,4.25
2023-02-13T19:49:00.526Z,4.37
2023-02-13T19:51:33.424Z,4.37
2023-02-13T19:54:06.326Z,4.34
2023-02-13T19:56:37.189Z,4.27
2023-02-13T19:59:21.177Z,4.31
2023-02-13T20:01:53.355Z,4.33
2023-02-13T20:04:21.896Z,4.30
2023-02-13T20:06:57.988Z,4.28
2023-02-13T20:09:28.224Z,4.29
2023-02-13T20:11:56.434Z,4.30
2023-02-13T20:14:24.750Z,4.27
2023-02-13T20:16:54.504Z,4.26
2023-02-13T20:19:23.709Z,4.19
2023-02-13T20:21:52.445Z,4.20
2023-02-13T20:24:20.989Z,4.20
2023-02-13T20:26:50.754Z,4.19
2023-02-13T20:29:18.920Z,4.22
2023-02-13T20:31:47.872Z,4.27
2023-02-13T20:34:18.252Z,4.29
2023-02-13T20:36:46.475Z,4.34
2023-02-13T20:39:14.964Z,4.35
2023-02-13T20:41:48.658Z,4.32
2023-02-13T20:44:17.570Z,4.34
2023-02-13T20:46:45.925Z,4.32
2023-02-13T20:49:22.231Z,4.31
2023-02-13T20:51:52.290Z,4.32
2023-02-13T20:54:20.981Z,4.31
2023-02-13T20:56:49.613Z,4.30
2023-02-13T20:59:18.047Z,4.30
2023-02-13T21:01:49.835Z,4.29
2023-02-13T21:04:20.238Z,4.31
2023-02-13T21:06:50.619Z,4.33
2023-02-13T21:09:20.368Z,4.36
2023-02-13T21:11:49.402Z,4.39
2023-02-13T21:14:17.482Z,4.40
2023-02-13T21:16:45.781Z,4.42
2023-02-13T21:19:17.372Z,4.44
2023-02-13T21:21:46.783Z,4.44
2023-02-13T21:24:17.056Z,4.41
2023-02-13T21:26:47.721Z,4.33
2023-02-13T21:29:16.087Z,4.27
2023-02-13T21:31:48.833Z,4.24
2023-02-13T21:34:19.297Z,4.22
2023-02-13T21:36:48.151Z,4.18
2023-02-13T21:39:17.401Z,4.18
2023-02-13T21:41:49.153Z,4.17
2023-02-13T21:44:18.358Z,4.25
2023-02-13T21:46:47.034Z,4.23
2023-02-13T21:49:17.320Z,4.22
2023-02-13T21:51:46.045Z,4.17
2023-02-13T21:54:14.898Z,4.17
2023-02-13T21:56:44.808Z,4.19
2023-02-13T21:59:16.801Z,4.18
2023-02-13T22:01:46.620Z,4.18
2023-02-13T22:04:15.585Z,4.17
2023-02-13T22:06:44.112Z,4.13
2023-02-13T22:09:19.275Z,4.08
2023-02-13T22:11:47.733Z,4.10
2023-02-13T22:14:19.230Z,4.01
2023-02-13T22:16:47.831Z,4.02
2023-02-13T22:19:17.512Z,3.96
2023-02-13T22:21:46.510Z,3.91
2023-02-13T22:24:14.759Z,3.87
2023-02-13T22:26:47.750Z,3.84
2023-02-13T22:29:23.910Z,3.78
2023-02-13T22:31:52.488Z,3.72
2023-02-13T22:34:20.964Z,3.75
2023-02-13T22:36:49.457Z,3.72
2023-02-13T22:39:17.618Z,3.70
2023-02-13T22:41:45.979Z,3.67
2023-02-13T22:44:14.582Z,3.66
2023-02-13T22:46:45.676Z,3.66
2023-02-13T22:49:13.966Z,3.68
2023-02-13T22:51:42.824Z,3.66
2023-02-13T22:54:11.988Z,3.63
2023-02-13T22:56:40.186Z,3.64
2023-02-13T22:59:08.400Z,3.62
2023-02-13T23:01:37.372Z,3.60
2023-02-13T23:04:07.249Z,3.57
2023-02-13T23:06:35.696Z,3.57
2023-02-13T23:09:03.857Z,3.54
2023-02-13T23:11:49.504Z,3.52
2023-02-13T23:14:17.743Z,3.51
2023-02-13T23:17:03.577Z,3.51
2023-02-13T23:19:33.360Z,3.52
2023-02-13T23:22:01.927Z,3.53
2023-02-13T23:24:31.274Z,3.52
2023-02-13T23:26:59.679Z,3.51
2023-02-13T23:29:28.195Z,3.46
2023-02-13T23:31:56.388Z,3.45
2023-02-13T23:34:24.716Z,3.45
2023-02-13T23:36:54.693Z,3.45
2023-02-13T23:39:24.429Z,3.45
2023-02-13T23:41:52.777Z,3.43
2023-02-13T23:44:21.700Z,3.44
2023-02-13T23:46:50.270Z,3.46
2023-02-13T23:49:18.738Z,3.44
2023-02-13T23:51:46.923Z,3.42
2023-02-13T23:54:22.204Z,3.41
2023-02-13T23:56:51.460Z,3.48
2023-02-13T23:59:20.551Z,3.46
